Time;durP1;ratioP1;P1;durP2;ratioP2;P2;SDS_P1;SDS_P2;PMS_P1;PMS_P2;Temp;Humidity;BMP_temperature;BMP_pressure;BME280_temperature;BME280_humidity;BME280_pressure;Samples;Min_cycle;Max_cycle;Signal;HPM_P1;HPM_P2
2021/04/25 00:00:36;;;;;;;24.70;12.70;;;;;;;4.70;97.08;97754.47;4945749;28;20407;-85
2021/04/25 00:03:02;;;;;;;21.85;11.13;;;;;;;4.88;97.95;97757.31;4945976;28;20113;-86
2021/04/25 00:05:27;;;;;;;26.67;11.63;;;;;;;4.77;97.65;97759.47;4938481;28;20481;-86
2021/04/25 00:07:53;;;;;;;30.33;13.98;;;;;;;4.66;97.40;97748.41;4938109;28;20470;-86
2021/04/25 00:10:19;;;;;;;35.40;16.33;;;;;;;4.77;97.47;97750.66;4959874;28;20069;-86
2021/04/25 00:12:45;;;;;;;26.73;12.20;;;;;;;4.81;96.40;97755.81;4947451;28;20089;-86
2021/04/25 00:15:14;;;;;;;25.80;10.55;;;;;;;4.89;95.61;97756.38;4943737;28;20026;-86
2021/04/25 00:17:40;;;;;;;19.95;9.77;;;;;;;4.86;95.35;97755.66;4943508;28;20027;-86
2021/04/25 00:20:09;;;;;;;26.10;11.73;;;;;;;4.77;96.56;97755.94;4959112;28;20442;-86
2021/04/25 00:22:36;;;;;;;24.17;10.73;;;;;;;4.74;96.72;97756.06;4940986;28;20109;-87
2021/04/25 00:25:02;;;;;;;24.92;11.20;;;;;;;4.65;97.21;97757.25;4941980;29;20027;-85
2021/04/25 00:27:27;;;;;;;20.50;10.63;;;;;;;4.70;97.74;97755.34;4939904;28;20038;-86
2021/04/25 00:29:53;;;;;;;19.55;10.50;;;;;;;4.70;98.09;97747.38;4943717;28;20114;-86
2021/04/25 00:32:19;;;;;;;17.50;10.07;;;;;;;4.75;97.57;97748.06;4943376;28;20029;-86
2021/04/25 00:34:45;;;;;;;22.02;9.75;;;;;;;4.73;97.21;97760.53;4943770;28;20384;-87
2021/04/25 00:37:10;;;;;;;21.92;9.93;;;;;;;4.63;97.64;97751.16;4943115;28;20018;-86
2021/04/25 00:39:36;;;;;;;21.40;10.45;;;;;;;4.66;97.96;97750.19;4948743;29;20034;-86
2021/04/25 00:42:02;;;;;;;24.83;10.23;;;;;;;4.60;97.99;97742.44;4940091;29;20056;-86
2021/04/25 00:44:27;;;;;;;30.00;10.88;;;;;;;4.68;98.37;97750.97;4956097;28;20026;-86
2021/04/25 00:46:53;;;;;;;25.55;11.02;;;;;;;4.67;98.44;97757.22;4941026;29;20030;-86
2021/04/25 00:49:19;;;;;;;23.75;10.90;;;;;;;4.62;98.34;97760.00;4923148;29;20053;-87
2021/04/25 00:51:44;;;;;;;25.67;11.90;;;;;;;4.45;97.96;97764.16;4925570;29;20125;-87
2021/04/25 00:54:10;;;;;;;24.60;12.30;;;;;;;4.32;99.06;97753.13;4909518;29;20038;-85
2021/04/25 00:56:36;;;;;;;30.13;13.70;;;;;;;4.36;99.53;97752.13;4912005;29;20040;-87
2021/04/25 00:59:03;;;;;;;28.67;14.38;;;;;;;4.37;99.57;97760.00;4922903;29;20031;-87
2021/04/25 01:01:28;;;;;;;31.67;14.98;;;;;;;4.27;100.00;97760.38;4939460;29;20050;-86
2021/04/25 01:03:54;;;;;;;30.35;16.25;;;;;;;4.19;100.00;97757.97;4938547;29;20483;-87
2021/04/25 01:06:23;;;;;;;33.00;14.25;;;;;;;4.16;100.00;97755.41;4940430;29;20490;-86
2021/04/25 01:08:52;;;;;;;28.23;13.27;;;;;;;4.02;100.00;97754.16;4974718;28;20031;-86
2021/04/25 01:11:18;;;;;;;25.58;12.55;;;;;;;3.97;100.00;97750.81;4915762;29;20504;-86
2021/04/25 01:13:44;;;;;;;32.55;12.27;;;;;;;4.01;100.00;97766.53;4923738;29;20043;-86
2021/04/25 01:16:09;;;;;;;29.75;12.45;;;;;;;3.89;100.00;97758.97;4923022;29;20517;-87
2021/04/25 01:18:38;;;;;;;22.33;11.88;;;;;;;3.85;100.00;97749.41;4925049;29;20027;-86
2021/04/25 01:21:05;;;;;;;23.42;10.93;;;;;;;3.80;100.00;97744.28;4929442;29;20082;-86
2021/04/25 01:23:58;;;;;;;19.48;10.38;;;;;;;3.94;100.00;97759.69;4877323;29;20033;-86
2021/04/25 01:26:24;;;;;;;22.60;10.25;;;;;;;3.53;100.00;97697.56;4892458;29;20036;-86
2021/04/25 01:28:49;;;;;;;26.90;11.75;;;;;;;3.82;100.00;97739.78;4876863;29;20437;-86
2021/04/25 01:31:28;;;;;;;32.10;12.88;;;;;;;3.39;100.00;97670.66;4883305;29;20041;-86
2021/04/25 01:33:54;;;;;;;24.35;11.30;;;;;;;3.81;100.00;97745.16;4861570;29;20048;-86
2021/04/25 01:36:19;;;;;;;23.92;10.80;;;;;;;3.84;100.00;97759.09;4888789;29;20033;-86
2021/04/25 01:38:48;;;;;;;21.38;9.25;;;;;;;3.84;100.00;97745.03;4878258;29;20074;-87
2021/04/25 01:41:16;;;;;;;17.70;9.68;;;;;;;3.77;100.00;97743.50;4873848;29;20477;-87
2021/04/25 01:43:41;;;;;;;21.42;10.15;;;;;;;3.82;100.00;97752.13;4853670;29;20029;-86
2021/04/25 01:46:07;;;;;;;20.48;10.13;;;;;;;3.78;100.00;97751.38;4889753;29;20036;-86
2021/04/25 01:48:32;;;;;;;19.23;10.20;;;;;;;3.81;100.00;97753.91;4890628;29;20048;-86
2021/04/25 01:50:58;;;;;;;17.90;10.07;;;;;;;3.72;100.00;97740.16;4892002;29;20448;-86
2021/04/25 01:53:23;;;;;;;22.25;10.77;;;;;;;3.72;100.00;97756.03;4896694;29;20048;-87
2021/04/25 01:55:49;;;;;;;22.10;10.25;;;;;;;3.73;100.00;97758.59;4878137;29;20121;-85
2021/04/25 01:58:43;;;;;;;22.50;9.98;;;;;;;3.65;100.00;97750.06;4901643;29;20047;-87
2021/04/25 02:01:09;;;;;;;25.20;11.57;;;;;;;3.54;100.00;97746.84;4911203;29;20117;-86
2021/04/25 02:03:35;;;;;;;25.42;12.18;;;;;;;3.57;100.00;97752.03;4933471;29;20050;-86
2021/04/25 02:06:00;;;;;;;24.13;10.55;;;;;;;3.42;100.00;97731.38;4926603;29;20038;-86
2021/04/25 02:08:26;;;;;;;25.45;9.90;;;;;;;3.51;100.00;97741.66;4932726;29;20067;-86
2021/04/25 02:10:51;;;;;;;17.38;8.35;;;;;;;3.48;100.00;97740.88;4937478;29;20035;-87
2021/04/25 02:13:18;;;;;;;20.50;9.70;;;;;;;3.42;100.00;97746.38;4938117;29;20066;-86
2021/04/25 02:15:44;;;;;;;19.65;10.13;;;;;;;3.34;100.00;97729.88;4918380;29;20027;-86
2021/04/25 02:18:11;;;;;;;20.38;8.98;;;;;;;3.36;100.00;97742.13;4920572;29;20059;-86
2021/04/25 02:20:37;;;;;;;19.20;9.55;;;;;;;3.41;100.00;97739.38;4923885;29;20027;-86
2021/04/25 02:23:15;;;;;;;22.60;10.38;;;;;;;3.26;100.00;97740.69;4932467;29;20479;-85
2021/04/25 02:25:42;;;;;;;25.02;10.82;;;;;;;3.22;100.00;97724.06;4944513;29;20412;-85
2021/04/25 02:28:08;;;;;;;22.08;10.20;;;;;;;3.37;100.00;97724.50;4927558;29;20035;-85
2021/04/25 02:30:35;;;;;;;21.65;10.18;;;;;;;3.50;100.00;97739.09;4918242;29;20562;-86
2021/04/25 02:33:00;;;;;;;23.38;10.27;;;;;;;3.39;100.00;97727.94;4919587;29;20031;-86
2021/04/25 02:35:27;;;;;;;22.77;10.68;;;;;;;3.31;100.00;97733.50;4919116;29;20404;-86
2021/04/25 02:37:55;;;;;;;21.23;10.52;;;;;;;3.22;100.00;97725.84;4919703;29;20038;-85
2021/04/25 02:40:22;;;;;;;24.42;10.38;;;;;;;3.25;100.00;97713.41;4924698;29;20475;-86
2021/04/25 02:42:48;;;;;;;26.35;10.65;;;;;;;3.37;100.00;97724.50;4925555;29;20035;-85
2021/04/25 02:45:15;;;;;;;20.98;11.35;;;;;;;3.24;100.00;97718.72;4931104;29;20035;-85
2021/04/25 02:47:51;;;;;;;25.55;11.13;;;;;;;3.27;100.00;97729.19;4903661;29;20491;-85
2021/04/25 02:50:19;;;;;;;23.17;12.15;;;;;;;3.29;100.00;97722.94;4948123;28;20066;-87
2021/04/25 02:52:44;;;;;;;25.05;11.52;;;;;;;3.17;100.00;97710.09;4940835;29;20035;-86
2021/04/25 02:55:11;;;;;;;22.67;12.32;;;;;;;3.13;100.00;97711.13;4943495;28;20486;-85
2021/04/25 02:57:38;;;;;;;37.88;13.98;;;;;;;3.05;100.00;97718.41;4940278;29;20026;-85
2021/04/25 03:00:06;;;;;;;25.42;13.55;;;;;;;2.99;100.00;97709.78;4940411;29;20027;-85
2021/04/25 03:02:32;;;;;;;22.23;11.30;;;;;;;3.06;100.00;97703.41;4953982;28;20037;-85
2021/04/25 03:04:57;;;;;;;21.67;10.25;;;;;;;3.02;100.00;97712.34;4933537;28;20514;-85
2021/04/25 03:07:23;;;;;;;15.82;9.00;;;;;;;2.94;100.00;97714.34;4932881;29;20035;-86
2021/04/25 03:09:48;;;;;;;24.95;9.50;;;;;;;2.87;100.00;97715.44;4934433;29;20032;-85
2021/04/25 03:12:14;;;;;;;20.73;10.18;;;;;;;2.70;100.00;97714.16;4932690;28;20034;-86
2021/04/25 03:14:39;;;;;;;19.10;10.00;;;;;;;2.65;100.00;97710.75;4933623;29;20063;-86
2021/04/25 03:17:05;;;;;;;16.17;9.75;;;;;;;2.62;100.00;97709.97;4925893;29;20030;-86
2021/04/25 03:19:30;;;;;;;17.48;9.27;;;;;;;2.60;100.00;97711.81;4934497;29;20023;-86
2021/04/25 03:21:56;;;;;;;17.13;9.10;;;;;;;2.65;100.00;97716.03;4938351;28;20392;-86
2021/04/25 03:24:22;;;;;;;18.38;9.38;;;;;;;2.67;100.00;97716.00;4952502;29;20074;-86
2021/04/25 03:26:48;;;;;;;19.55;10.05;;;;;;;2.65;100.00;97723.97;4939826;29;20443;-86
2021/04/25 03:29:13;;;;;;;18.65;9.90;;;;;;;2.69;100.00;97720.34;4943425;28;20027;-87
2021/04/25 03:31:39;;;;;;;18.70;9.30;;;;;;;2.60;100.00;97722.38;4931222;29;20522;-86
2021/04/25 03:34:05;;;;;;;19.08;9.02;;;;;;;2.57;100.00;97725.97;4941812;28;20069;-86
2021/04/25 03:36:31;;;;;;;18.10;10.52;;;;;;;2.53;100.00;97720.78;4935031;29;20405;-86
2021/04/25 03:38:56;;;;;;;20.08;10.50;;;;;;;2.59;100.00;97726.78;4923201;28;20064;-86
2021/04/25 03:41:22;;;;;;;20.65;10.48;;;;;;;2.52;100.00;97735.75;4933971;29;20415;-86
2021/04/25 03:43:48;;;;;;;33.85;11.27;;;;;;;2.53;100.00;97721.66;4953506;29;20103;-85
2021/04/25 03:46:13;;;;;;;22.20;11.85;;;;;;;2.62;100.00;97729.34;4933813;28;20031;-86
2021/04/25 03:48:39;;;;;;;22.13;12.23;;;;;;;2.64;100.00;97721.38;4942625;28;20035;-86
2021/04/25 03:51:05;;;;;;;24.58;12.27;;;;;;;2.71;100.00;97731.72;4936420;28;20019;-86
2021/04/25 03:53:31;;;;;;;22.05;11.50;;;;;;;2.68;100.00;97720.38;4934570;29;20494;-86
2021/04/25 03:55:56;;;;;;;29.80;11.48;;;;;;;2.74;100.00;97728.13;4939266;28;20027;-86
2021/04/25 03:58:22;;;;;;;21.85;11.02;;;;;;;2.78;100.00;97727.13;4946136;28;20035;-86
2021/04/25 04:00:47;;;;;;;22.73;11.10;;;;;;;2.77;100.00;97732.47;4956324;29;20094;-86
2021/04/25 04:03:13;;;;;;;18.95;10.00;;;;;;;2.95;100.00;97747.78;4947237;28;20053;-86
2021/04/25 04:05:38;;;;;;;18.10;9.50;;;;;;;2.99;100.00;97730.91;4942771;28;20105;-87
2021/04/25 04:08:04;;;;;;;25.95;10.43;;;;;;;3.14;100.00;97730.47;4945316;28;20037;-86
2021/04/25 04:10:30;;;;;;;19.73;9.73;;;;;;;3.28;100.00;97750.31;4949164;28;20474;-86
2021/04/25 04:12:55;;;;;;;15.77;9.35;;;;;;;3.29;100.00;97746.72;4958331;28;20031;-87
2021/04/25 04:15:21;;;;;;;17.15;9.13;;;;;;;3.40;100.00;97745.56;4951278;28;20030;-86
2021/04/25 04:17:47;;;;;;;22.73;12.60;;;;;;;3.64;100.00;97745.66;4944605;28;20053;-86
2021/04/25 04:20:13;;;;;;;23.55;12.02;;;;;;;3.95;99.67;97747.31;4945444;28;20031;-85
2021/04/25 04:22:38;;;;;;;27.45;12.43;;;;;;;4.16;98.53;97757.19;4937436;29;20035;-87
2021/04/25 04:25:05;;;;;;;26.17;11.18;;;;;;;4.21;98.02;97750.00;4940546;28;20467;-87
2021/04/25 04:27:31;;;;;;;25.05;12.25;;;;;;;4.22;97.26;97763.16;4942446;29;20027;-87
2021/04/25 04:29:56;;;;;;;23.15;13.10;;;;;;;4.02;97.61;97743.56;4943720;28;20042;-86
2021/04/25 04:32:22;;;;;;;43.03;21.00;;;;;;;4.16;97.26;97749.25;4927231;29;20027;-87
2021/04/25 04:34:47;;;;;;;43.00;24.00;;;;;;;4.37;96.80;97762.63;4935657;28;20035;-87
2021/04/25 04:37:13;;;;;;;33.15;18.05;;;;;;;4.48;96.48;97772.88;4942117;28;20101;-87
2021/04/25 04:39:39;;;;;;;28.27;14.82;;;;;;;4.57;96.29;97772.56;4944841;28;20043;-87
2021/04/25 04:42:07;;;;;;;30.02;14.80;;;;;;;4.76;96.21;97767.50;4942718;28;20421;-87
2021/04/25 04:44:33;;;;;;;27.90;15.05;;;;;;;5.00;95.87;97781.63;4927672;28;20053;-86
2021/04/25 04:46:58;;;;;;;45.13;17.70;;;;;;;5.01;95.35;97768.34;4935578;28;20035;-86
2021/04/25 04:49:24;;;;;;;34.65;15.43;;;;;;;5.11;94.88;97777.66;4957414;28;20057;-84
2021/04/25 04:51:50;;;;;;;45.53;13.68;;;;;;;5.28;94.21;97771.75;4944187;28;20045;-84
2021/04/25 04:54:15;;;;;;;33.00;12.15;;;;;;;5.43;93.37;97779.13;4950488;28;20066;-85
2021/04/25 04:56:41;;;;;;;27.88;12.57;;;;;;;5.63;93.16;97771.25;4949378;28;20026;-85
2021/04/25 04:59:06;;;;;;;19.10;10.98;;;;;;;5.89;90.58;97773.81;4941238;28;20053;-84
2021/04/25 05:01:32;;;;;;;24.95;9.93;;;;;;;6.19;88.65;97776.13;4941881;29;20039;-85
2021/04/25 05:03:58;;;;;;;18.92;10.05;;;;;;;6.77;85.89;97770.09;4958620;28;20061;-86
2021/04/25 05:06:24;;;;;;;24.05;10.15;;;;;;;7.55;81.11;97764.81;4951149;28;20031;-86
2021/04/25 05:08:49;;;;;;;20.98;9.90;;;;;;;8.19;77.69;97789.25;4926569;29;20043;-86
2021/04/25 05:11:15;;;;;;;17.70;9.80;;;;;;;8.79;73.29;97780.03;4931565;28;20090;-87
2021/04/25 05:13:40;;;;;;;21.58;11.90;;;;;;;10.17;68.33;97786.78;4953716;28;20038;-86
2021/04/25 05:16:06;;;;;;;21.63;9.48;;;;;;;11.73;62.46;97798.81;4949772;28;20415;-86
2021/04/25 05:18:58;;;;;;;14.70;8.35;;;;;;;13.16;54.81;97810.91;4949781;28;20010;-87
2021/04/25 05:21:24;;;;;;;24.25;9.63;;;;;;;14.52;51.37;97806.53;4959843;28;20070;-90
2021/04/25 05:23:50;;;;;;;19.90;9.65;;;;;;;15.66;46.95;97791.47;4946783;29;20051;-90
2021/04/25 05:26:15;;;;;;;21.27;9.43;;;;;;;16.84;44.71;97804.41;4950930;28;20050;-88
2021/04/25 05:28:41;;;;;;;16.77;8.88;;;;;;;17.64;41.23;97801.16;4944262;28;20371;-87
2021/04/25 05:31:07;;;;;;;17.65;9.73;;;;;;;18.74;39.50;97808.50;4957850;28;20391;-89
2021/04/25 05:33:32;;;;;;;15.43;9.93;;;;;;;19.39;37.49;97802.44;4970274;28;20057;-89
2021/04/25 05:35:58;;;;;;;16.17;9.90;;;;;;;20.76;35.25;97796.38;4958301;28;20077;-89
2021/04/25 05:38:23;;;;;;;20.50;9.88;;;;;;;21.27;33.56;97794.88;4945196;28;20035;-88
2021/04/25 05:40:49;;;;;;;14.85;9.07;;;;;;;21.73;33.15;97810.94;4941268;28;20034;-89
2021/04/25 05:43:15;;;;;;;14.57;8.55;;;;;;;22.39;31.58;97796.78;4973672;28;20045;-88
2021/04/25 05:45:40;;;;;;;13.25;9.13;;;;;;;23.26;30.43;97800.00;4942396;28;20043;-88
2021/04/25 05:48:06;;;;;;;26.92;9.82;;;;;;;23.96;28.91;97784.88;4952497;28;20027;-88
2021/04/25 05:50:32;;;;;;;17.17;8.57;;;;;;;24.81;28.17;97783.31;4966280;28;20054;-88
2021/04/25 05:52:58;;;;;;;17.17;9.10;;;;;;;24.67;27.38;97773.09;4960772;28;20431;-88
2021/04/25 05:55:24;;;;;;;15.35;8.63;;;;;;;25.11;26.87;97781.63;4937811;28;20034;-88
2021/04/25 05:57:51;;;;;;;12.30;8.32;;;;;;;24.43;27.82;97789.56;4956572;28;20057;-88
2021/04/25 06:00:20;;;;;;;23.73;8.95;;;;;;;24.72;27.37;97787.09;4948561;28;20041;-89
2021/04/25 06:02:45;;;;;;;16.90;10.65;;;;;;;24.44;28.45;97799.50;4944729;28;20045;-88
2021/04/25 06:05:11;;;;;;;19.08;11.77;;;;;;;24.85;28.17;97795.63;4941873;28;20477;-88
2021/04/25 06:07:37;;;;;;;15.30;10.52;;;;;;;24.74;28.22;97798.69;4941750;28;20035;-88
2021/04/25 06:10:05;;;;;;;20.42;10.35;;;;;;;25.18;27.66;97797.16;4959353;28;20027;-80
2021/04/25 06:12:31;;;;;;;21.60;11.88;;;;;;;26.42;26.15;97792.22;4963902;28;20041;-75
2021/04/25 06:14:56;;;;;;;24.02;11.95;;;;;;;25.76;27.16;97788.38;4955418;28;20114;-75
2021/04/25 06:17:22;;;;;;;22.33;11.93;;;;;;;25.51;26.97;97786.00;4948004;29;20122;-77
2021/04/25 06:19:52;;;;;;;21.50;12.02;;;;;;;24.21;27.91;97789.28;4943868;28;20037;-82
2021/04/25 06:22:18;;;;;;;21.05;10.48;;;;;;;23.08;29.74;97780.19;4941855;28;20145;-79
2021/04/25 06:24:44;;;;;;;17.00;10.18;;;;;;;23.65;29.20;97803.00;4943075;28;20156;-76
2021/04/25 06:27:09;;;;;;;22.33;9.20;;;;;;;24.09;28.37;97796.13;4966102;28;20512;-75
2021/04/25 06:29:36;;;;;;;16.30;9.02;;;;;;;24.02;29.02;97789.66;4951926;28;20034;-78
2021/04/25 06:32:05;;;;;;;16.13;10.02;;;;;;;25.01;27.58;97787.31;4927078;28;20063;-79
2021/04/25 06:34:31;;;;;;;18.05;10.52;;;;;;;25.65;27.24;97786.06;4934710;28;20426;-79
2021/04/25 06:37:33;;;;;;;15.70;9.07;;;;;;;24.59;27.89;97770.38;4960278;28;20027;-82
2021/04/25 06:39:58;;;;;;;23.47;14.20;;;;;;;24.89;27.67;97777.78;4967363;28;20110;-81
2021/04/25 06:42:24;;;;;;;19.38;12.80;;;;;;;25.55;27.42;97781.88;4953232;28;20058;-77
2021/04/25 06:44:50;;;;;;;16.70;9.68;;;;;;;25.64;26.49;97769.81;4964599;28;20515;-77
2021/04/25 06:47:15;;;;;;;14.93;8.40;;;;;;;23.77;27.89;97768.00;4973221;28;20050;-76
2021/04/25 06:49:42;;;;;;;18.35;10.27;;;;;;;25.38;26.69;97766.56;4967897;28;20486;-76
2021/04/25 06:52:12;;;;;;;16.45;7.93;;;;;;;26.34;25.39;97760.22;4951902;28;20030;-75
2021/04/25 06:54:38;;;;;;;14.43;7.93;;;;;;;27.29;24.01;97740.97;4957316;28;20500;-75
2021/04/25 06:57:08;;;;;;;24.92;9.30;;;;;;;27.15;24.28;97740.00;4952084;28;20043;-75
2021/04/25 06:59:33;;;;;;;19.35;8.48;;;;;;;26.72;24.62;97746.41;4955336;28;20035;-74
2021/04/25 07:01:59;;;;;;;15.45;9.48;;;;;;;26.62;24.56;97745.84;4954803;28;20037;-75
2021/04/25 07:04:25;;;;;;;15.15;8.60;;;;;;;27.15;24.90;97730.91;4950426;29;20035;-75
2021/04/25 07:06:50;;;;;;;19.92;8.60;;;;;;;27.22;23.77;97729.09;4937799;28;20082;-76
2021/04/25 07:09:22;;;;;;;17.55;8.20;;;;;;;27.17;24.05;97724.16;4970677;28;20041;-78
2021/04/25 07:11:47;;;;;;;18.20;8.45;;;;;;;27.08;24.30;97725.31;4949936;28;20053;-75
2021/04/25 07:14:13;;;;;;;17.67;8.25;;;;;;;26.33;23.98;97724.78;4939475;28;20038;-75
2021/04/25 07:16:39;;;;;;;18.92;10.05;;;;;;;26.98;24.35;97719.28;4938818;28;20026;-75
2021/04/25 07:19:04;;;;;;;17.73;9.30;;;;;;;27.69;23.81;97728.50;4954911;28;20045;-75
2021/04/25 07:21:30;;;;;;;21.50;12.35;;;;;;;27.07;24.07;97718.13;4955870;28;20026;-77
2021/04/25 07:23:55;;;;;;;31.48;13.00;;;;;;;27.03;23.58;97710.47;4950829;28;20066;-77
2021/04/25 07:26:21;;;;;;;22.23;11.30;;;;;;;28.09;23.04;97714.06;4953784;28;20405;-76
2021/04/25 07:28:47;;;;;;;32.58;13.23;;;;;;;27.93;24.92;97725.34;4955400;28;20041;-79
2021/04/25 07:31:12;;;;;;;28.55;15.80;;;;;;;28.21;22.78;97712.44;4955553;28;20026;-79
2021/04/25 07:33:43;;;;;;;36.45;22.38;;;;;;;29.11;22.56;97722.44;4926332;29;20491;-87
2021/04/25 07:36:09;;;;;;;17.83;11.18;;;;;;;29.09;22.80;97710.78;4944189;28;20039;-83
2021/04/25 07:38:39;;;;;;;24.40;12.45;;;;;;;28.85;21.94;97712.19;4967477;28;20030;-77
2021/04/25 07:41:06;;;;;;;11.90;7.35;;;;;;;29.06;21.47;97706.53;4966934;28;20065;-76
2021/04/25 07:43:32;;;;;;;11.95;6.57;;;;;;;28.02;21.94;97695.78;4947618;28;20429;-75
2021/04/25 07:45:57;;;;;;;37.58;8.90;;;;;;;27.84;22.52;97697.13;4952025;28;20030;-75
2021/04/25 07:48:23;;;;;;;14.55;5.75;;;;;;;28.05;22.63;97693.53;4921212;28;20822;-75
2021/04/25 07:50:49;;;;;;;21.05;6.70;;;;;;;28.81;22.93;97694.38;4953990;28;20035;-77
2021/04/25 07:53:16;;;;;;;19.25;10.80;;;;;;;29.49;21.39;97696.06;4938120;28;20410;-75
2021/04/25 07:55:42;;;;;;;19.92;7.00;;;;;;;29.69;20.58;97694.16;4957169;28;20069;-76
2021/04/25 07:58:07;;;;;;;10.07;4.90;;;;;;;28.06;21.76;97675.94;4967266;28;20063;-77
2021/04/25 08:00:33;;;;;;;7.03;4.45;;;;;;;29.32;20.33;97681.81;4954971;28;20501;-76
2021/04/25 08:02:59;;;;;;;5.65;4.45;;;;;;;29.53;19.31;97669.78;4967598;28;20486;-75
2021/04/25 08:05:24;;;;;;;18.10;6.60;;;;;;;29.56;19.58;97670.16;4940551;28;20039;-77
2021/04/25 08:07:51;;;;;;;7.13;4.10;;;;;;;27.63;20.49;97669.66;4940626;28;20556;-77
2021/04/25 08:10:17;;;;;;;8.40;3.95;;;;;;;28.71;19.72;97658.94;4973524;28;20034;-75
2021/04/25 08:12:43;;;;;;;5.93;3.45;;;;;;;29.08;19.05;97665.84;4956370;28;20493;-75
2021/04/25 08:15:09;;;;;;;9.15;4.70;;;;;;;29.07;18.36;97655.91;4956404;28;20110;-76
2021/04/25 08:17:34;;;;;;;13.10;4.70;;;;;;;29.98;17.58;97657.88;4973782;28;20073;-76
2021/04/25 08:20:00;;;;;;;9.27;4.60;;;;;;;29.23;18.24;97658.22;4956357;28;20030;-77
2021/04/25 08:22:26;;;;;;;9.75;4.20;;;;;;;30.06;18.08;97649.38;4956259;28;20045;-74
2021/04/25 08:24:51;;;;;;;19.02;4.90;;;;;;;30.70;18.17;97643.06;4940124;28;20023;-76
2021/04/25 08:27:17;;;;;;;6.38;4.03;;;;;;;30.84;17.51;97641.06;4973036;28;20031;-76
2021/04/25 08:29:42;;;;;;;7.85;3.80;;;;;;;30.54;18.22;97641.63;4939892;28;20119;-76
2021/04/25 08:32:08;;;;;;;8.52;4.05;;;;;;;30.17;18.23;97630.47;4946707;28;20039;-76
2021/04/25 08:34:34;;;;;;;12.20;5.22;;;;;;;30.41;18.74;97635.31;4955944;28;20379;-76
2021/04/25 08:37:00;;;;;;;4.95;3.80;;;;;;;29.53;18.51;97637.50;4940178;28;20040;-76
2021/04/25 08:39:25;;;;;;;8.07;4.45;;;;;;;30.41;18.38;97630.63;4955907;28;20143;-76
2021/04/25 08:41:54;;;;;;;5.95;3.95;;;;;;;30.91;18.86;97622.53;4956066;28;20074;-76
2021/04/25 08:44:20;;;;;;;11.00;4.70;;;;;;;31.52;17.88;97629.19;4956034;28;20507;-77
2021/04/25 08:46:50;;;;;;;8.63;3.83;;;;;;;31.78;17.33;97610.66;4939999;28;20033;-77
2021/04/25 08:49:18;;;;;;;8.10;3.75;;;;;;;31.42;17.40;97623.25;4940341;28;20430;-77
2021/04/25 08:51:44;;;;;;;8.32;3.75;;;;;;;31.52;19.36;97623.66;4956035;28;20038;-76
2021/04/25 08:54:12;;;;;;;5.30;3.45;;;;;;;31.35;17.35;97622.47;4956150;28;20089;-77
2021/04/25 08:56:38;;;;;;;8.98;3.95;;;;;;;28.32;19.01;97609.22;4963148;28;20458;-76
2021/04/25 08:59:03;;;;;;;10.35;4.55;;;;;;;29.38;19.60;97627.72;4957073;28;20022;-76
2021/04/25 09:01:29;;;;;;;11.35;4.55;;;;;;;29.78;18.49;97617.56;4945596;29;20023;-76
2021/04/25 09:03:55;;;;;;;17.00;4.30;;;;;;;29.99;18.24;97606.31;4939691;28;20552;-76
2021/04/25 09:06:21;;;;;;;15.30;8.85;;;;;;;30.21;18.20;97596.66;4936438;29;20027;-76
2021/04/25 09:08:51;;;;;;;9.65;3.13;;;;;;;28.82;17.71;97600.53;4955794;28;20057;-75
2021/04/25 09:11:33;;;;;;;6.63;3.40;;;;;;;29.43;18.40;97611.44;4955867;28;20120;-77
2021/04/25 09:14:24;;;;;;;6.22;3.55;;;;;;;29.80;17.41;97604.41;4939592;28;20034;-76
2021/04/25 09:16:57;;;;;;;6.03;3.40;;;;;;;29.36;17.37;97585.75;4955564;28;20478;-75
2021/04/25 09:19:44;;;;;;;34.40;22.20;;;;;;;29.34;18.17;97593.41;4960327;28;20499;-75
2021/04/25 09:22:10;;;;;;;7.95;3.65;;;;;;;29.61;17.17;97577.69;4938194;29;20495;-75
2021/04/25 09:24:35;;;;;;;6.25;5.53;;;;;;;30.60;17.68;97576.38;4922128;28;20074;-76
2021/04/25 09:27:01;;;;;;;9.13;6.50;;;;;;;30.02;16.41;97561.72;4955540;28;20086;-76
2021/04/25 09:29:45;;;;;;;4.43;3.22;;;;;;;30.62;16.72;97561.28;4964072;28;20536;-76
2021/04/25 09:32:22;;;;;;;6.18;3.63;;;;;;;32.02;16.01;97559.94;4955155;28;20019;-75
2021/04/25 09:34:48;;;;;;;9.80;3.38;;;;;;;32.24;16.21;97555.66;4958890;28;20443;-76
2021/04/25 09:37:19;;;;;;;5.88;3.25;;;;;;;32.45;16.45;97563.50;4955073;28;20046;-75
2021/04/25 09:39:59;;;;;;;6.20;3.30;;;;;;;31.50;15.66;97542.78;4966108;28;20066;-76
2021/04/25 09:42:25;;;;;;;25.02;16.60;;;;;;;31.33;16.44;97535.28;4950954;28;20553;-76
2021/04/25 09:44:51;;;;;;;10.65;4.22;;;;;;;32.49;15.72;97542.53;4954856;28;20079;-75
2021/04/25 09:47:17;;;;;;;24.98;16.05;;;;;;;32.37;16.08;97538.00;4955050;28;20039;-76
2021/04/25 09:49:45;;;;;;;5.20;3.03;;;;;;;30.88;15.65;97534.56;4943019;28;20066;-76
2021/04/25 09:52:26;;;;;;;28.67;14.48;;;;;;;31.61;15.88;97539.31;4930923;29;20407;-75
2021/04/25 09:54:53;;;;;;;5.93;3.88;;;;;;;32.01;15.17;97522.25;4951439;29;20034;-75
2021/04/25 09:57:32;;;;;;;5.97;3.30;;;;;;;32.56;15.33;97512.00;4935782;29;20055;-75
2021/04/25 09:59:58;;;;;;;5.78;3.45;;;;;;;32.12;15.15;97507.66;4935814;29;20434;-75
2021/04/25 10:02:23;;;;;;;5.55;3.17;;;;;;;32.83;15.66;97523.53;4912117;29;20119;-76
2021/04/25 10:04:50;;;;;;;5.25;3.03;;;;;;;31.30;15.23;97497.88;4919477;29;20050;-76
2021/04/25 10:07:16;;;;;;;4.47;2.75;;;;;;;30.54;15.96;97484.22;4935428;29;20035;-75
2021/04/25 10:09:41;;;;;;;11.25;4.10;;;;;;;31.45;16.91;97494.72;4933317;29;20097;-75
2021/04/25 10:12:07;;;;;;;5.60;2.80;;;;;;;31.46;16.45;97491.75;4923654;29;20167;-75
2021/04/25 10:14:34;;;;;;;5.20;3.00;;;;;;;32.46;14.91;97489.53;4918663;29;20454;-75
2021/04/25 10:17:01;;;;;;;6.55;2.70;;;;;;;33.33;14.38;97488.00;4912892;29;20031;-75
2021/04/25 10:19:27;;;;;;;3.30;2.53;;;;;;;33.07;15.01;97478.19;4919573;29;20054;-75
2021/04/25 10:21:53;;;;;;;4.20;2.90;;;;;;;33.59;15.30;97468.97;4935278;29;20027;-75
2021/04/25 10:24:21;;;;;;;9.00;6.82;;;;;;;34.39;14.75;97466.28;4935228;29;20035;-74
2021/04/25 10:27:09;;;;;;;12.68;6.45;;;;;;;34.08;13.81;97452.81;4935402;29;20023;-75
2021/04/25 10:29:38;;;;;;;3.92;2.80;;;;;;;33.63;14.45;97449.88;4919322;29;20031;-75
2021/04/25 10:32:05;;;;;;;6.40;3.03;;;;;;;32.74;16.13;97448.22;4919458;29;20027;-75
2021/04/25 10:34:31;;;;;;;5.70;3.00;;;;;;;33.58;15.56;97449.75;4950944;29;20038;-76
2021/04/25 10:36:59;;;;;;;8.02;2.75;;;;;;;33.75;15.91;97454.31;4951243;28;20452;-75
2021/04/25 10:39:37;;;;;;;7.25;3.60;;;;;;;33.18;15.37;97441.31;4951278;29;20031;-75
2021/04/25 10:42:25;;;;;;;3.95;2.50;;;;;;;32.83;14.25;97432.91;4951211;28;20042;-75
2021/04/25 10:45:02;;;;;;;11.23;2.88;;;;;;;32.77;14.62;97433.03;4950971;29;20479;-75
2021/04/25 10:47:32;;;;;;;4.18;2.65;;;;;;;33.79;13.74;97433.31;4951196;29;20049;-75
2021/04/25 10:50:18;;;;;;;3.55;2.40;;;;;;;34.86;15.31;97427.94;4963776;28;20126;-75
2021/04/25 10:52:50;;;;;;;10.80;3.83;;;;;;;34.96;14.21;97428.13;4958369;28;20043;-75
2021/04/25 10:55:24;;;;;;;3.08;2.78;;;;;;;34.24;13.61;97418.75;4954106;28;20113;-75
2021/04/25 11:00:34;;;;;;;9.05;3.17;;;;;;;33.05;15.32;97417.41;4972210;28;20510;-75
2021/04/25 11:03:00;;;;;;;5.95;3.10;;;;;;;32.08;15.53;97415.94;4964684;28;20167;-75
2021/04/25 11:05:38;;;;;;;6.85;2.70;;;;;;;33.62;14.68;97420.47;4957707;28;20040;-75
2021/04/25 11:08:05;;;;;;;6.72;3.30;;;;;;;33.22;14.36;97412.03;4973982;28;20030;-76
2021/04/25 11:10:45;;;;;;;7.68;3.20;;;;;;;33.74;14.39;97410.19;4957627;28;20030;-76
2021/04/25 11:13:40;;;;;;;5.72;2.50;;;;;;;32.67;13.96;97403.97;4967015;28;20086;-76
2021/04/25 11:16:06;;;;;;;5.53;2.60;;;;;;;33.68;13.91;97406.44;4974921;28;20021;-76
2021/04/25 11:18:51;;;;;;;3.80;2.17;;;;;;;34.00;12.86;97411.53;4941355;28;20034;-76
2021/04/25 11:21:39;;;;;;;4.65;2.35;;;;;;;31.49;13.69;97407.50;4974760;28;20058;-77
2021/04/25 11:24:05;;;;;;;3.83;2.30;;;;;;;31.80;14.72;97403.72;4967738;28;20042;-76
2021/04/25 11:26:34;;;;;;;3.30;2.22;;;;;;;33.22;13.69;97403.69;4954477;28;20039;-75
2021/04/25 11:29:20;;;;;;;4.18;2.50;;;;;;;34.58;12.33;97400.19;4974334;28;20035;-75